JMK weather

Mikonos Airport
Mykonos Island, Cyclades, Greece

Public forecast

Using degrees Celsius for public forecast. Weather courtesy of forecast.io.

Current aviation weather report (METAR) for Mikonos Airport

Report is more than 6 hours old.

Retrieved 2020/05/29 10:50 UTC (8 hours ago):

LGMK 291050Z 12007KT 9999 FEW020 22/09 Q1017

Aviation forecast (TAF) for Mikonos Airport

Forecast is more than 12 hours old.

Retrieved 2012/09/27 00:18 UTC (8 years ago):

TAF TAF LGMK 272300Z 2800/2909 36016KT 9999 FEW020